sensor_id;sensor_type;location;lat;lon;timestamp;P1;durP1;ratioP1;P2;durP2;ratioP2
21120;SDS011;12519;43.318;21.898;2023-07-30T00:01:50;8.0;;;6.0;;
21120;SDS011;12519;43.318;21.898;2023-07-30T00:06:26;8.0;;;6.0;;
21120;SDS011;12519;43.318;21.898;2023-07-30T00:11:03;8.0;;;6.0;;
21120;SDS011;12519;43.318;21.898;2023-07-30T00:15:39;6.0;;;6.0;;
21120;SDS011;12519;43.318;21.898;2023-07-30T00:20:16;6.0;;;6.0;;
21120;SDS011;12519;43.318;21.898;2023-07-30T00:24:52;6.0;;;6.0;;
21120;SDS011;12519;43.318;21.898;2023-07-30T00:29:28;6.0;;;6.0;;
21120;SDS011;12519;43.318;21.898;2023-07-30T00:34:05;7.0;;;6.0;;
21120;SDS011;12519;43.318;21.898;2023-07-30T00:38:41;7.0;;;6.0;;
21120;SDS011;12519;43.318;21.898;2023-07-30T00:43:18;8.0;;;6.0;;
21120;SDS011;12519;43.318;21.898;2023-07-30T00:47:54;8.0;;;6.0;;
21120;SDS011;12519;43.318;21.898;2023-07-30T00:52:32;8.0;;;7.0;;
21120;SDS011;12519;43.318;21.898;2023-07-30T00:57:12;8.0;;;7.0;;
21120;SDS011;12519;43.318;21.898;2023-07-30T01:01:55;8.0;;;7.0;;
21120;SDS011;12519;43.318;21.898;2023-07-30T01:06:38;8.0;;;6.0;;
21120;SDS011;12519;43.318;21.898;2023-07-30T01:11:15;8.0;;;6.0;;
21120;SDS011;12519;43.318;21.898;2023-07-30T01:15:56;7.0;;;6.0;;
21120;SDS011;12519;43.318;21.898;2023-07-30T01:20:33;7.0;;;6.0;;
21120;SDS011;12519;43.318;21.898;2023-07-30T01:25:10;7.0;;;6.0;;
21120;SDS011;12519;43.318;21.898;2023-07-30T01:29:48;7.0;;;6.0;;
21120;SDS011;12519;43.318;21.898;2023-07-30T01:34:57;7.0;;;6.0;;
21120;SDS011;12519;43.318;21.898;2023-07-30T01:39:43;7.0;;;6.0;;
21120;SDS011;12519;43.318;21.898;2023-07-30T01:44:27;6.0;;;6.0;;
21120;SDS011;12519;43.318;21.898;2023-07-30T01:49:03;6.0;;;6.0;;
21120;SDS011;12519;43.318;21.898;2023-07-30T01:53:40;6.0;;;5.0;;
21120;SDS011;12519;43.318;21.898;2023-07-30T01:58:17;6.0;;;5.0;;
21120;SDS011;12519;43.318;21.898;2023-07-30T02:02:53;6.0;;;6.0;;
21120;SDS011;12519;43.318;21.898;2023-07-30T02:07:30;6.0;;;6.0;;
21120;SDS011;12519;43.318;21.898;2023-07-30T02:12:07;6.0;;;6.0;;
21120;SDS011;12519;43.318;21.898;2023-07-30T02:16:44;6.0;;;6.0;;
21120;SDS011;12519;43.318;21.898;2023-07-30T02:21:21;6.0;;;6.0;;
21120;SDS011;12519;43.318;21.898;2023-07-30T02:25:58;6.0;;;6.0;;
21120;SDS011;12519;43.318;21.898;2023-07-30T02:30:35;6.0;;;6.0;;
21120;SDS011;12519;43.318;21.898;2023-07-30T02:35:12;6.0;;;5.0;;
21120;SDS011;12519;43.318;21.898;2023-07-30T02:39:49;6.0;;;5.0;;
21120;SDS011;12519;43.318;21.898;2023-07-30T02:44:25;6.0;;;6.0;;
21120;SDS011;12519;43.318;21.898;2023-07-30T02:49:01;6.0;;;6.0;;
21120;SDS011;12519;43.318;21.898;2023-07-30T02:53:38;7.0;;;6.0;;
21120;SDS011;12519;43.318;21.898;2023-07-30T02:58:14;7.0;;;6.0;;
21120;SDS011;12519;43.318;21.898;2023-07-30T03:02:50;7.0;;;6.0;;
21120;SDS011;12519;43.318;21.898;2023-07-30T03:07:27;7.0;;;6.0;;
21120;SDS011;12519;43.318;21.898;2023-07-30T03:12:04;7.0;;;6.0;;
21120;SDS011;12519;43.318;21.898;2023-07-30T03:16:43;7.0;;;7.0;;
21120;SDS011;12519;43.318;21.898;2023-07-30T03:21:20;7.0;;;7.0;;
21120;SDS011;12519;43.318;21.898;2023-07-30T03:25:57;8.0;;;6.0;;
21120;SDS011;12519;43.318;21.898;2023-07-30T03:30:35;8.0;;;6.0;;
21120;SDS011;12519;43.318;21.898;2023-07-30T03:35:12;9.0;;;6.0;;
21120;SDS011;12519;43.318;21.898;2023-07-30T03:39:49;9.0;;;6.0;;
21120;SDS011;12519;43.318;21.898;2023-07-30T03:44:26;8.0;;;6.0;;
21120;SDS011;12519;43.318;21.898;2023-07-30T03:49:03;8.0;;;6.0;;
21120;SDS011;12519;43.318;21.898;2023-07-30T03:53:40;7.0;;;6.0;;
21120;SDS011;12519;43.318;21.898;2023-07-30T03:58:16;7.0;;;6.0;;
21120;SDS011;12519;43.318;21.898;2023-07-30T04:02:53;7.0;;;6.0;;
21120;SDS011;12519;43.318;21.898;2023-07-30T04:07:30;7.0;;;6.0;;
21120;SDS011;12519;43.318;21.898;2023-07-30T04:12:07;7.0;;;6.0;;
21120;SDS011;12519;43.318;21.898;2023-07-30T04:16:44;7.0;;;7.0;;
21120;SDS011;12519;43.318;21.898;2023-07-30T04:21:21;7.0;;;7.0;;
21120;SDS011;12519;43.318;21.898;2023-07-30T04:25:57;8.0;;;8.0;;
21120;SDS011;12519;43.318;21.898;2023-07-30T04:30:34;8.0;;;8.0;;
21120;SDS011;12519;43.318;21.898;2023-07-30T04:35:11;9.0;;;8.0;;
21120;SDS011;12519;43.318;21.898;2023-07-30T04:39:48;9.0;;;8.0;;
21120;SDS011;12519;43.318;21.898;2023-07-30T04:44:26;8.0;;;8.0;;
21120;SDS011;12519;43.318;21.898;2023-07-30T04:49:03;8.0;;;8.0;;
21120;SDS011;12519;43.318;21.898;2023-07-30T04:53:40;8.0;;;8.0;;
21120;SDS011;12519;43.318;21.898;2023-07-30T04:58:16;8.0;;;8.0;;
21120;SDS011;12519;43.318;21.898;2023-07-30T05:02:53;10.0;;;8.0;;
21120;SDS011;12519;43.318;21.898;2023-07-30T05:07:30;10.0;;;8.0;;
21120;SDS011;12519;43.318;21.898;2023-07-30T05:12:07;10.0;;;8.0;;
21120;SDS011;12519;43.318;21.898;2023-07-30T05:16:44;12.0;;;9.0;;
21120;SDS011;12519;43.318;21.898;2023-07-30T05:21:20;12.0;;;9.0;;
21120;SDS011;12519;43.318;21.898;2023-07-30T05:25:56;13.0;;;10.0;;
21120;SDS011;12519;43.318;21.898;2023-07-30T05:30:33;13.0;;;10.0;;
21120;SDS011;12519;43.318;21.898;2023-07-30T05:35:09;14.0;;;12.0;;
21120;SDS011;12519;43.318;21.898;2023-07-30T05:39:45;14.0;;;12.0;;
21120;SDS011;12519;43.318;21.898;2023-07-30T05:44:21;12.0;;;11.0;;
21120;SDS011;12519;43.318;21.898;2023-07-30T05:48:58;12.0;;;11.0;;
21120;SDS011;12519;43.318;21.898;2023-07-30T05:53:35;11.0;;;10.0;;
21120;SDS011;12519;43.318;21.898;2023-07-30T05:58:11;11.0;;;10.0;;
21120;SDS011;12519;43.318;21.898;2023-07-30T06:02:49;12.0;;;11.0;;
21120;SDS011;12519;43.318;21.898;2023-07-30T06:07:26;12.0;;;11.0;;
21120;SDS011;12519;43.318;21.898;2023-07-30T06:12:03;12.0;;;11.0;;
21120;SDS011;12519;43.318;21.898;2023-07-30T06:16:42;12.0;;;12.0;;
21120;SDS011;12519;43.318;21.898;2023-07-30T06:21:19;12.0;;;12.0;;
21120;SDS011;12519;43.318;21.898;2023-07-30T06:25:56;12.0;;;12.0;;
21120;SDS011;12519;43.318;21.898;2023-07-30T06:30:33;12.0;;;12.0;;
21120;SDS011;12519;43.318;21.898;2023-07-30T06:35:10;13.0;;;12.0;;
21120;SDS011;12519;43.318;21.898;2023-07-30T06:39:46;13.0;;;12.0;;
21120;SDS011;12519;43.318;21.898;2023-07-30T06:44:23;12.0;;;11.0;;
21120;SDS011;12519;43.318;21.898;2023-07-30T06:48:59;12.0;;;11.0;;
21120;SDS011;12519;43.318;21.898;2023-07-30T06:53:36;11.0;;;10.0;;
21120;SDS011;12519;43.318;21.898;2023-07-30T06:58:12;11.0;;;10.0;;
21120;SDS011;12519;43.318;21.898;2023-07-30T07:02:49;10.0;;;10.0;;
21120;SDS011;12519;43.318;21.898;2023-07-30T07:07:26;10.0;;;10.0;;
21120;SDS011;12519;43.318;21.898;2023-07-30T07:12:03;10.0;;;10.0;;
21120;SDS011;12519;43.318;21.898;2023-07-30T07:16:44;10.0;;;9.0;;
21120;SDS011;12519;43.318;21.898;2023-07-30T07:21:20;10.0;;;9.0;;
21120;SDS011;12519;43.318;21.898;2023-07-30T07:25:57;13.0;;;10.0;;
21120;SDS011;12519;43.318;21.898;2023-07-30T07:30:34;13.0;;;10.0;;
21120;SDS011;12519;43.318;21.898;2023-07-30T07:35:12;16.0;;;12.0;;
21120;SDS011;12519;43.318;21.898;2023-07-30T07:39:49;16.0;;;12.0;;
21120;SDS011;12519;43.318;21.898;2023-07-30T07:44:25;12.0;;;10.0;;
21120;SDS011;12519;43.318;21.898;2023-07-30T07:49:02;12.0;;;10.0;;
21120;SDS011;12519;43.318;21.898;2023-07-30T07:53:39;9.0;;;8.0;;
21120;SDS011;12519;43.318;21.898;2023-07-30T07:58:15;9.0;;;8.0;;
21120;SDS011;12519;43.318;21.898;2023-07-30T08:02:52;10.0;;;8.0;;
21120;SDS011;12519;43.318;21.898;2023-07-30T08:07:28;10.0;;;8.0;;
21120;SDS011;12519;43.318;21.898;2023-07-30T08:12:05;10.0;;;8.0;;
21120;SDS011;12519;43.318;21.898;2023-07-30T08:16:43;10.0;;;9.0;;
21120;SDS011;12519;43.318;21.898;2023-07-30T08:21:19;10.0;;;9.0;;
21120;SDS011;12519;43.318;21.898;2023-07-30T08:25:56;10.0;;;8.0;;
21120;SDS011;12519;43.318;21.898;2023-07-30T08:30:32;10.0;;;8.0;;
21120;SDS011;12519;43.318;21.898;2023-07-30T08:35:09;9.0;;;8.0;;
21120;SDS011;12519;43.318;21.898;2023-07-30T08:39:46;9.0;;;8.0;;
21120;SDS011;12519;43.318;21.898;2023-07-30T08:44:23;10.0;;;9.0;;
21120;SDS011;12519;43.318;21.898;2023-07-30T08:49:01;10.0;;;9.0;;
21120;SDS011;12519;43.318;21.898;2023-07-30T08:53:38;11.0;;;10.0;;
21120;SDS011;12519;43.318;21.898;2023-07-30T08:58:18;11.0;;;10.0;;
21120;SDS011;12519;43.318;21.898;2023-07-30T09:03:03;10.0;;;9.0;;
21120;SDS011;12519;43.318;21.898;2023-07-30T09:07:50;10.0;;;9.0;;
21120;SDS011;12519;43.318;21.898;2023-07-30T09:12:28;10.0;;;9.0;;
21120;SDS011;12519;43.318;21.898;2023-07-30T09:17:10;8.0;;;8.0;;
21120;SDS011;12519;43.318;21.898;2023-07-30T09:21:54;8.0;;;8.0;;
21120;SDS011;12519;43.318;21.898;2023-07-30T09:26:39;10.0;;;8.0;;
21120;SDS011;12519;43.318;21.898;2023-07-30T09:31:22;10.0;;;8.0;;
21120;SDS011;12519;43.318;21.898;2023-07-30T09:36:01;11.0;;;9.0;;
21120;SDS011;12519;43.318;21.898;2023-07-30T09:40:44;11.0;;;9.0;;
21120;SDS011;12519;43.318;21.898;2023-07-30T09:45:23;10.0;;;8.0;;
21120;SDS011;12519;43.318;21.898;2023-07-30T09:50:02;10.0;;;8.0;;
21120;SDS011;12519;43.318;21.898;2023-07-30T09:54:44;8.0;;;7.0;;
21120;SDS011;12519;43.318;21.898;2023-07-30T09:59:27;8.0;;;7.0;;
21120;SDS011;12519;43.318;21.898;2023-07-30T10:04:05;8.0;;;7.0;;
21120;SDS011;12519;43.318;21.898;2023-07-30T10:08:48;8.0;;;7.0;;
21120;SDS011;12519;43.318;21.898;2023-07-30T10:13:36;8.0;;;7.0;;
21120;SDS011;12519;43.318;21.898;2023-07-30T10:18:18;8.0;;;7.0;;
21120;SDS011;12519;43.318;21.898;2023-07-30T10:22:56;8.0;;;7.0;;
21120;SDS011;12519;43.318;21.898;2023-07-30T10:27:41;8.0;;;8.0;;
21120;SDS011;12519;43.318;21.898;2023-07-30T10:32:18;8.0;;;8.0;;
21120;SDS011;12519;43.318;21.898;2023-07-30T10:36:55;9.0;;;8.0;;
21120;SDS011;12519;43.318;21.898;2023-07-30T10:41:32;9.0;;;8.0;;
21120;SDS011;12519;43.318;21.898;2023-07-30T10:46:09;10.0;;;8.0;;
21120;SDS011;12519;43.318;21.898;2023-07-30T10:50:52;10.0;;;8.0;;
21120;SDS011;12519;43.318;21.898;2023-07-30T10:55:29;11.0;;;8.0;;
21120;SDS011;12519;43.318;21.898;2023-07-30T11:00:06;11.0;;;8.0;;
21120;SDS011;12519;43.318;21.898;2023-07-30T11:04:47;10.0;;;8.0;;
21120;SDS011;12519;43.318;21.898;2023-07-30T11:09:24;10.0;;;8.0;;
21120;SDS011;12519;43.318;21.898;2023-07-30T11:14:03;8.0;;;8.0;;
21120;SDS011;12519;43.318;21.898;2023-07-30T11:18:40;8.0;;;8.0;;
21120;SDS011;12519;43.318;21.898;2023-07-30T11:23:20;8.0;;;7.0;;
21120;SDS011;12519;43.318;21.898;2023-07-30T11:27:59;8.0;;;7.0;;
21120;SDS011;12519;43.318;21.898;2023-07-30T11:32:36;8.0;;;7.0;;
21120;SDS011;12519;43.318;21.898;2023-07-30T11:37:13;7.0;;;6.0;;
21120;SDS011;12519;43.318;21.898;2023-07-30T11:41:51;7.0;;;6.0;;
21120;SDS011;12519;43.318;21.898;2023-07-30T11:46:28;8.0;;;6.0;;
21120;SDS011;12519;43.318;21.898;2023-07-30T11:51:05;8.0;;;6.0;;
21120;SDS011;12519;43.318;21.898;2023-07-30T11:55:54;8.0;;;7.0;;
21120;SDS011;12519;43.318;21.898;2023-07-30T12:00:31;8.0;;;7.0;;
21120;SDS011;12519;43.318;21.898;2023-07-30T12:05:10;7.0;;;6.0;;
21120;SDS011;12519;43.318;21.898;2023-07-30T12:09:47;7.0;;;6.0;;
21120;SDS011;12519;43.318;21.898;2023-07-30T12:14:24;6.0;;;5.0;;
21120;SDS011;12519;43.318;21.898;2023-07-30T12:19:28;6.0;;;5.0;;
21120;SDS011;12519;43.318;21.898;2023-07-30T12:24:05;6.0;;;6.0;;
21120;SDS011;12519;43.318;21.898;2023-07-30T12:28:42;6.0;;;6.0;;
21120;SDS011;12519;43.318;21.898;2023-07-30T12:33:18;7.0;;;7.0;;
21120;SDS011;12519;43.318;21.898;2023-07-30T12:37:55;7.0;;;7.0;;
21120;SDS011;12519;43.318;21.898;2023-07-30T12:42:32;7.0;;;7.0;;
21120;SDS011;12519;43.318;21.898;2023-07-30T12:47:09;8.0;;;7.0;;
21120;SDS011;12519;43.318;21.898;2023-07-30T12:51:46;8.0;;;7.0;;
21120;SDS011;12519;43.318;21.898;2023-07-30T12:56:22;10.0;;;7.0;;
21120;SDS011;12519;43.318;21.898;2023-07-30T13:00:59;10.0;;;7.0;;
21120;SDS011;12519;43.318;21.898;2023-07-30T13:05:38;8.0;;;7.0;;
21120;SDS011;12519;43.318;21.898;2023-07-30T13:10:15;8.0;;;7.0;;
21120;SDS011;12519;43.318;21.898;2023-07-30T13:14:52;7.0;;;7.0;;
21120;SDS011;12519;43.318;21.898;2023-07-30T13:19:28;7.0;;;7.0;;
21120;SDS011;12519;43.318;21.898;2023-07-30T13:24:05;8.0;;;8.0;;
21120;SDS011;12519;43.318;21.898;2023-07-30T13:28:41;8.0;;;8.0;;
21120;SDS011;12519;43.318;21.898;2023-07-30T13:33:17;8.0;;;8.0;;
21120;SDS011;12519;43.318;21.898;2023-07-30T13:37:54;10.0;;;9.0;;
21120;SDS011;12519;43.318;21.898;2023-07-30T13:42:30;10.0;;;9.0;;
21120;SDS011;12519;43.318;21.898;2023-07-30T13:47:06;10.0;;;8.0;;
21120;SDS011;12519;43.318;21.898;2023-07-30T13:51:42;10.0;;;8.0;;
21120;SDS011;12519;43.318;21.898;2023-07-30T13:56:19;9.0;;;8.0;;
21120;SDS011;12519;43.318;21.898;2023-07-30T14:00:55;9.0;;;8.0;;
21120;SDS011;12519;43.318;21.898;2023-07-30T14:05:32;12.0;;;8.0;;
21120;SDS011;12519;43.318;21.898;2023-07-30T14:10:09;12.0;;;8.0;;
21120;SDS011;12519;43.318;21.898;2023-07-30T14:14:45;15.0;;;8.0;;
21120;SDS011;12519;43.318;21.898;2023-07-30T14:19:22;15.0;;;8.0;;
21120;SDS011;12519;43.318;21.898;2023-07-30T14:23:59;12.0;;;8.0;;
21120;SDS011;12519;43.318;21.898;2023-07-30T14:28:36;12.0;;;8.0;;
21120;SDS011;12519;43.318;21.898;2023-07-30T14:33:13;12.0;;;8.0;;
21120;SDS011;12519;43.318;21.898;2023-07-30T14:37:50;10.0;;;9.0;;
21120;SDS011;12519;43.318;21.898;2023-07-30T14:42:27;10.0;;;9.0;;
21120;SDS011;12519;43.318;21.898;2023-07-30T14:47:03;9.0;;;8.0;;
21120;SDS011;12519;43.318;21.898;2023-07-30T14:51:41;9.0;;;8.0;;
21120;SDS011;12519;43.318;21.898;2023-07-30T14:56:18;8.0;;;7.0;;
21120;SDS011;12519;43.318;21.898;2023-07-30T15:00:54;8.0;;;7.0;;
21120;SDS011;12519;43.318;21.898;2023-07-30T15:05:31;8.0;;;8.0;;
21120;SDS011;12519;43.318;21.898;2023-07-30T15:10:09;8.0;;;8.0;;
21120;SDS011;12519;43.318;21.898;2023-07-30T15:14:46;9.0;;;8.0;;
21120;SDS011;12519;43.318;21.898;2023-07-30T15:19:23;9.0;;;8.0;;
21120;SDS011;12519;43.318;21.898;2023-07-30T15:24:00;10.0;;;9.0;;
21120;SDS011;12519;43.318;21.898;2023-07-30T15:28:37;10.0;;;9.0;;
21120;SDS011;12519;43.318;21.898;2023-07-30T15:33:13;10.0;;;9.0;;
21120;SDS011;12519;43.318;21.898;2023-07-30T15:37:50;10.0;;;10.0;;
21120;SDS011;12519;43.318;21.898;2023-07-30T15:42:27;10.0;;;10.0;;
21120;SDS011;12519;43.318;21.898;2023-07-30T15:47:04;10.0;;;10.0;;
21120;SDS011;12519;43.318;21.898;2023-07-30T15:51:41;10.0;;;10.0;;
21120;SDS011;12519;43.318;21.898;2023-07-30T15:56:18;11.0;;;11.0;;
21120;SDS011;12519;43.318;21.898;2023-07-30T16:00:54;11.0;;;11.0;;
21120;SDS011;12519;43.318;21.898;2023-07-30T16:05:31;12.0;;;12.0;;
21120;SDS011;12519;43.318;21.898;2023-07-30T16:10:08;12.0;;;12.0;;
21120;SDS011;12519;43.318;21.898;2023-07-30T16:14:45;14.0;;;14.0;;
21120;SDS011;12519;43.318;21.898;2023-07-30T16:19:25;14.0;;;14.0;;
21120;SDS011;12519;43.318;21.898;2023-07-30T16:24:02;11.0;;;11.0;;
21120;SDS011;12519;43.318;21.898;2023-07-30T16:28:40;11.0;;;11.0;;
21120;SDS011;12519;43.318;21.898;2023-07-30T16:33:17;11.0;;;11.0;;
21120;SDS011;12519;43.318;21.898;2023-07-30T16:37:56;8.0;;;8.0;;
21120;SDS011;12519;43.318;21.898;2023-07-30T16:42:32;8.0;;;8.0;;
21120;SDS011;12519;43.318;21.898;2023-07-30T16:47:09;8.0;;;8.0;;
21120;SDS011;12519;43.318;21.898;2023-07-30T16:51:46;8.0;;;8.0;;
21120;SDS011;12519;43.318;21.898;2023-07-30T16:56:23;8.0;;;7.0;;
21120;SDS011;12519;43.318;21.898;2023-07-30T17:01:00;8.0;;;7.0;;
21120;SDS011;12519;43.318;21.898;2023-07-30T17:05:37;11.0;;;8.0;;
21120;SDS011;12519;43.318;21.898;2023-07-30T17:10:13;11.0;;;8.0;;
21120;SDS011;12519;43.318;21.898;2023-07-30T17:14:51;14.0;;;8.0;;
21120;SDS011;12519;43.318;21.898;2023-07-30T17:19:28;14.0;;;8.0;;
21120;SDS011;12519;43.318;21.898;2023-07-30T17:24:05;11.0;;;8.0;;
21120;SDS011;12519;43.318;21.898;2023-07-30T17:28:41;11.0;;;8.0;;
21120;SDS011;12519;43.318;21.898;2023-07-30T17:33:18;11.0;;;8.0;;
21120;SDS011;12519;43.318;21.898;2023-07-30T17:37:54;8.0;;;7.0;;
21120;SDS011;12519;43.318;21.898;2023-07-30T17:42:31;8.0;;;7.0;;
21120;SDS011;12519;43.318;21.898;2023-07-30T17:47:07;9.0;;;7.0;;
21120;SDS011;12519;43.318;21.898;2023-07-30T17:51:44;9.0;;;7.0;;
21120;SDS011;12519;43.318;21.898;2023-07-30T17:56:21;10.0;;;7.0;;
21120;SDS011;12519;43.318;21.898;2023-07-30T18:01:00;10.0;;;7.0;;
21120;SDS011;12519;43.318;21.898;2023-07-30T18:05:45;12.0;;;8.0;;
21120;SDS011;12519;43.318;21.898;2023-07-30T18:10:23;12.0;;;8.0;;
21120;SDS011;12519;43.318;21.898;2023-07-30T18:15:00;13.0;;;10.0;;
21120;SDS011;12519;43.318;21.898;2023-07-30T18:19:37;13.0;;;10.0;;
21120;SDS011;12519;43.318;21.898;2023-07-30T18:24:14;14.0;;;9.0;;
21120;SDS011;12519;43.318;21.898;2023-07-30T18:28:50;14.0;;;9.0;;
21120;SDS011;12519;43.318;21.898;2023-07-30T18:33:27;14.0;;;9.0;;
21120;SDS011;12519;43.318;21.898;2023-07-30T18:38:04;14.0;;;8.0;;
21120;SDS011;12519;43.318;21.898;2023-07-30T18:42:40;14.0;;;8.0;;
21120;SDS011;12519;43.318;21.898;2023-07-30T18:47:17;10.0;;;7.0;;
21120;SDS011;12519;43.318;21.898;2023-07-30T18:51:53;10.0;;;7.0;;
21120;SDS011;12519;43.318;21.898;2023-07-30T18:56:30;7.0;;;6.0;;
21120;SDS011;12519;43.318;21.898;2023-07-30T19:01:06;7.0;;;6.0;;
21120;SDS011;12519;43.318;21.898;2023-07-30T19:05:47;6.0;;;6.0;;
21120;SDS011;12519;43.318;21.898;2023-07-30T19:10:25;6.0;;;6.0;;
21120;SDS011;12519;43.318;21.898;2023-07-30T19:15:01;5.0;;;5.0;;
21120;SDS011;12519;43.318;21.898;2023-07-30T19:19:42;5.0;;;5.0;;
21120;SDS011;12519;43.318;21.898;2023-07-30T19:24:19;7.0;;;6.0;;
21120;SDS011;12519;43.318;21.898;2023-07-30T19:28:56;7.0;;;6.0;;
21120;SDS011;12519;43.318;21.898;2023-07-30T19:33:35;7.0;;;6.0;;
21120;SDS011;12519;43.318;21.898;2023-07-30T19:38:15;9.0;;;8.0;;
21120;SDS011;12519;43.318;21.898;2023-07-30T19:42:51;9.0;;;8.0;;
21120;SDS011;12519;43.318;21.898;2023-07-30T19:47:28;10.0;;;10.0;;
21120;SDS011;12519;43.318;21.898;2023-07-30T19:52:05;10.0;;;10.0;;
21120;SDS011;12519;43.318;21.898;2023-07-30T19:56:43;12.0;;;11.0;;
21120;SDS011;12519;43.318;21.898;2023-07-30T20:01:20;12.0;;;11.0;;
21120;SDS011;12519;43.318;21.898;2023-07-30T20:05:57;10.0;;;9.0;;
21120;SDS011;12519;43.318;21.898;2023-07-30T20:10:40;10.0;;;9.0;;
21120;SDS011;12519;43.318;21.898;2023-07-30T20:15:18;8.0;;;7.0;;
21120;SDS011;12519;43.318;21.898;2023-07-30T20:19:54;8.0;;;7.0;;
21120;SDS011;12519;43.318;21.898;2023-07-30T20:24:31;7.0;;;6.0;;
21120;SDS011;12519;43.318;21.898;2023-07-30T20:29:07;7.0;;;6.0;;
21120;SDS011;12519;43.318;21.898;2023-07-30T20:33:44;7.0;;;6.0;;
21120;SDS011;12519;43.318;21.898;2023-07-30T20:38:21;6.0;;;6.0;;
21120;SDS011;12519;43.318;21.898;2023-07-30T20:42:57;6.0;;;6.0;;
21120;SDS011;12519;43.318;21.898;2023-07-30T20:47:34;6.0;;;6.0;;
21120;SDS011;12519;43.318;21.898;2023-07-30T20:52:11;6.0;;;6.0;;
21120;SDS011;12519;43.318;21.898;2023-07-30T20:56:48;6.0;;;6.0;;
21120;SDS011;12519;43.318;21.898;2023-07-30T21:01:25;6.0;;;6.0;;
21120;SDS011;12519;43.318;21.898;2023-07-30T21:06:01;6.0;;;6.0;;
21120;SDS011;12519;43.318;21.898;2023-07-30T21:10:39;6.0;;;6.0;;
21120;SDS011;12519;43.318;21.898;2023-07-30T21:15:16;6.0;;;5.0;;
21120;SDS011;12519;43.318;21.898;2023-07-30T21:19:52;6.0;;;5.0;;
21120;SDS011;12519;43.318;21.898;2023-07-30T21:24:29;6.0;;;6.0;;
21120;SDS011;12519;43.318;21.898;2023-07-30T21:29:05;6.0;;;6.0;;
21120;SDS011;12519;43.318;21.898;2023-07-30T21:33:41;6.0;;;6.0;;
21120;SDS011;12519;43.318;21.898;2023-07-30T21:38:18;6.0;;;6.0;;
21120;SDS011;12519;43.318;21.898;2023-07-30T21:42:55;6.0;;;6.0;;
21120;SDS011;12519;43.318;21.898;2023-07-30T21:47:31;6.0;;;6.0;;
21120;SDS011;12519;43.318;21.898;2023-07-30T21:52:19;6.0;;;6.0;;
21120;SDS011;12519;43.318;21.898;2023-07-30T21:57:02;6.0;;;5.0;;
21120;SDS011;12519;43.318;21.898;2023-07-30T22:01:41;6.0;;;5.0;;
21120;SDS011;12519;43.318;21.898;2023-07-30T22:06:17;6.0;;;4.0;;
21120;SDS011;12519;43.318;21.898;2023-07-30T22:10:55;6.0;;;4.0;;
21120;SDS011;12519;43.318;21.898;2023-07-30T22:15:31;5.0;;;4.0;;
21120;SDS011;12519;43.318;21.898;2023-07-30T22:20:08;5.0;;;4.0;;
21120;SDS011;12519;43.318;21.898;2023-07-30T22:24:47;6.0;;;6.0;;
21120;SDS011;12519;43.318;21.898;2023-07-30T22:29:23;6.0;;;6.0;;
21120;SDS011;12519;43.318;21.898;2023-07-30T22:34:00;6.0;;;6.0;;
21120;SDS011;12519;43.318;21.898;2023-07-30T22:38:36;7.0;;;7.0;;
21120;SDS011;12519;43.318;21.898;2023-07-30T22:43:13;7.0;;;7.0;;
21120;SDS011;12519;43.318;21.898;2023-07-30T22:47:49;7.0;;;6.0;;
21120;SDS011;12519;43.318;21.898;2023-07-30T22:52:26;7.0;;;6.0;;
21120;SDS011;12519;43.318;21.898;2023-07-30T22:57:02;7.0;;;6.0;;
21120;SDS011;12519;43.318;21.898;2023-07-30T23:01:42;7.0;;;6.0;;
21120;SDS011;12519;43.318;21.898;2023-07-30T23:06:19;7.0;;;6.0;;
21120;SDS011;12519;43.318;21.898;2023-07-30T23:10:56;7.0;;;6.0;;
21120;SDS011;12519;43.318;21.898;2023-07-30T23:15:32;7.0;;;6.0;;
21120;SDS011;12519;43.318;21.898;2023-07-30T23:20:10;7.0;;;6.0;;
21120;SDS011;12519;43.318;21.898;2023-07-30T23:24:48;8.0;;;6.0;;
21120;SDS011;12519;43.318;21.898;2023-07-30T23:29:25;8.0;;;6.0;;
21120;SDS011;12519;43.318;21.898;2023-07-30T23:34:01;8.0;;;6.0;;
21120;SDS011;12519;43.318;21.898;2023-07-30T23:38:38;8.0;;;7.0;;
21120;SDS011;12519;43.318;21.898;2023-07-30T23:43:15;8.0;;;7.0;;
21120;SDS011;12519;43.318;21.898;2023-07-30T23:47:51;8.0;;;8.0;;
21120;SDS011;12519;43.318;21.898;2023-07-30T23:52:28;8.0;;;8.0;;
21120;SDS011;12519;43.318;21.898;2023-07-30T23:57:05;9.0;;;8.0;;
